Salten — LMFM — position and weather

sailwx.info

Track history (hours):
 
Tides and Currents Weather Stations Pressure Air Temp Water Temp Dewpoint Dewpoint Depression Visibility Wind Speed Wind Dir Waves Ship Positions

Salten

Last reported at 2016-Jun-26 18:10 UTC. Time now 2016-Jun-27 00:40 UTC.
Position N 66°07' E 012°47'.

Length 41 m; draft 2 m.

Type: High speed craft. MMSI: 259387000.

Date/timePositionNaut miles runAvg speedWind from/ knotsBaromVisibWave heightAir tempDewpointWater temp
2016-Jun-26 18:10N 66°07' E 012°47'14 5.1
2016-Jun-26 15:24N 66°21' E 012°50'3712.2
2016-Jun-26 12:24N 66°54' E 013°32'1720.6
2016-Jun-26 11:33N 67°08' E 013°58'1313.0
2016-Jun-26 10:33N 67°17' E 014°22'0 0.0
2016-Jun-26 09:34N 67°17' E 014°22'0 0.0
2016-Jun-26 08:34N 67°17' E 014°22'0 0.0
2016-Jun-26 07:34N 67°17' E 014°22'0 0.0
2016-Jun-26 06:34N 67°17' E 014°22'0 0.0
2016-Jun-26 05:33N 67°17' E 014°22'0 0.0
2016-Jun-26 04:33N 67°17' E 014°22'0 0.0
2016-Jun-26 03:34N 67°17' E 014°22'0 0.0
2016-Jun-26 02:33N 67°17' E 014°22'0 0.0
2016-Jun-26 01:34N 67°17' E 014°22'0 0.0
2016-Jun-26 00:33N 67°17' E 014°22'0 0.0
2016-Jun-25 23:34N 67°17' E 014°22'0 0.0
2016-Jun-25 22:34N 67°17' E 014°22'0 0.0
2016-Jun-25 21:33N 67°17' E 014°22'0 0.0
2016-Jun-25 20:34N 67°17' E 014°22'0 0.0
2016-Jun-25 19:34N 67°17' E 014°22'0 0.0
2016-Jun-25 18:34N 67°17' E 014°22'0 0.0
2016-Jun-25 17:34N 67°17' E 014°22'0 0.0
2016-Jun-25 16:34N 67°17' E 014°22'0 0.0
2016-Jun-25 15:33N 67°17' E 014°22'0 0.0
2016-Jun-25 14:34N 67°17' E 014°22'0 0.0
2016-Jun-25 13:34N 67°17' E 014°22'0 0.0
2016-Jun-25 12:34N 67°17' E 014°22'0 0.0
2016-Jun-25 11:33N 67°17' E 014°22'0 0.0
2016-Jun-25 10:33N 67°17' E 014°22'0 0.0
2016-Jun-25 09:33N 67°17' E 014°22'1 0.7
2016-Jun-25 08:34N 67°17' E 014°24'1312.8
2016-Jun-25 07:33N 67°29' E 014°37'1 0.1
2016-Jun-24 16:33N 67°30' E 014°39'1514.8
2016-Jun-24 15:34N 67°17' E 014°22'8 3.8
2016-Jun-24 13:34N 67°24' E 014°31'7 7.2
2016-Jun-24 12:34N 67°17' E 014°23'0 0.4
2016-Jun-24 11:33N 67°17' E 014°22'0 0.0
2016-Jun-24 10:33N 67°17' E 014°22'0 0.0
2016-Jun-24 09:33N 67°17' E 014°22'0 0.0
2016-Jun-24 08:33N 67°17' E 014°22'20 1.2
2016-Jun-23 16:06N 67°36' E 014°42'1323.6
2016-Jun-23 15:33N 67°24' E 014°30'7 7.5
2016-Jun-23 14:33N 67°17' E 014°22'0 0.0
2016-Jun-23 13:33N 67°17' E 014°22'0 0.0
2016-Jun-23 12:33N 67°17' E 014°22'0 0.0
2016-Jun-23 11:34N 67°17' E 014°22'0 0.0
2016-Jun-23 10:34N 67°17' E 014°22'9 8.8
2016-Jun-23 09:33N 67°11' E 014°06'57 3.8
2016-Jun-22 18:32N 66°21' E 012°59'3611.5
2016-Jun-22 15:21N 66°55' E 013°30'1519.1
2016-Jun-22 14:34N 67°06' E 013°57'1515.0
2016-Jun-22 13:34N 67°17' E 014°22'0 0.0
2016-Jun-22 12:33N 67°17' E 014°22'0 0.0
2016-Jun-22 11:33N 67°17' E 014°22'0 0.0
2016-Jun-22 10:33N 67°17' E 014°22'0 0.0
2016-Jun-22 09:34N 67°17' E 014°22'0 0.0
2016-Jun-22 08:33N 67°17' E 014°22'1312.5
2016-Jun-22 07:33N 67°29' E 014°33'6 0.4
2016-Jun-21 15:34N 67°23' E 014°29'7 6.8
2016-Jun-21 14:34N 67°17' E 014°22'0 0.0
2016-Jun-21 13:33N 67°17' E 014°22'0 0.0
2016-Jun-21 12:34N 67°17' E 014°22'0 0.0
2016-Jun-21 11:33N 67°17' E 014°22'0 0.2
2016-Jun-21 10:33N 67°17' E 014°23'1211.8
2016-Jun-21 09:33N 67°09' E 014°01'4714.6
2016-Jun-21 06:19N 66°29' E 012°58'8 0.7
2016-Jun-20 18:28N 66°21' E 012°58'3611.5
2016-Jun-20 15:20N 66°54' E 013°31'1518.9
2016-Jun-20 14:34N 67°05' E 013°56'1615.5
2016-Jun-20 13:34N 67°17' E 014°22'0 0.0
2016-Jun-20 12:33N 67°17' E 014°22'0 0.0
2016-Jun-20 11:34N 67°17' E 014°22'0 0.0
2016-Jun-20 10:33N 67°17' E 014°22'10 9.5
2016-Jun-20 09:33N 67°10' E 014°05'4715.5
2016-Jun-20 06:29N 66°30' E 012°60'10 0.7
2016-Jun-19 15:13N 66°21' E 012°52'1112.0
2016-Jun-19 14:20N 66°31' E 012°60'2713.7
2016-Jun-19 12:25N 66°54' E 013°32'1720.5
2016-Jun-19 11:34N 67°08' E 013°58'1312.9
2016-Jun-19 10:33N 67°17' E 014°22'0 0.0
2016-Jun-19 09:33N 67°17' E 014°22'0 0.0
2016-Jun-19 08:34N 67°17' E 014°22'0 0.0
2016-Jun-19 07:34N 67°17' E 014°22'0 0.0
2016-Jun-19 06:33N 67°17' E 014°22'0 0.0
2016-Jun-19 05:34N 67°17' E 014°22'0 0.0
2016-Jun-19 04:33N 67°17' E 014°22'0 0.0
2016-Jun-19 03:34N 67°17' E 014°22'0 0.0
2016-Jun-19 02:34N 67°17' E 014°22'0 0.0
2016-Jun-19 01:34N 67°17' E 014°22'0 0.0
2016-Jun-19 00:34N 67°17' E 014°22'0 0.0
2016-Jun-18 23:34N 67°17' E 014°22'0 0.0
2016-Jun-18 22:33N 67°17' E 014°22'0 0.0
2016-Jun-18 21:33N 67°17' E 014°22'0 0.0
2016-Jun-18 20:33N 67°17' E 014°22'0 0.0
2016-Jun-18 19:33N 67°17' E 014°22'0 0.0
2016-Jun-18 18:34N 67°17' E 014°22'0 0.0
2016-Jun-18 17:33N 67°17' E 014°22'0 0.0
2016-Jun-18 16:33N 67°17' E 014°22'0 0.0
2016-Jun-18 15:33N 67°17' E 014°22'0 0.0
2016-Jun-18 14:33N 67°17' E 014°22'0 0.0
2016-Jun-18 13:34N 67°17' E 014°22'0 0.0
2016-Jun-18 12:33N 67°17' E 014°22'0 0.0
2016-Jun-18 11:33N 67°17' E 014°22'0 0.0
2016-Jun-18 10:33N 67°17' E 014°22'0 0.0
2016-Jun-18 09:34N 67°17' E 014°22'0 0.0
2016-Jun-18 08:34N 67°17' E 014°22'1010.4
2016-Jun-18 07:33N 67°26' E 014°34'4 0.2
2016-Jun-17 16:34N 67°30' E 014°37'1414.1
2016-Jun-17 15:33N 67°17' E 014°22'2214.6
2016-Jun-17 14:04N 67°37' E 014°42'1428.4
2016-Jun-17 13:34N 67°24' E 014°30'7 7.0
2016-Jun-17 12:33N 67°17' E 014°23'0 0.4
2016-Jun-17 11:33N 67°17' E 014°22'0 0.0
2016-Jun-17 10:33N 67°17' E 014°22'0 0.0
2016-Jun-17 09:33N 67°17' E 014°22'0 0.0
2016-Jun-17 08:33N 67°17' E 014°22'7 7.3
2016-Jun-17 07:33N 67°24' E 014°31'  
Track history (hours):
 
Tides and Currents Weather Stations Pressure Air Temp Water Temp Dewpoint Dewpoint Depression Visibility Wind Speed Wind Dir Waves Ship Positions

Salten

Last reported at 2016-Jun-26 18:10 UTC. Time now 2016-Jun-27 00:40 UTC.
Position N 66°07' E 012°47'.

Length 41 m; draft 2 m.

Type: High speed craft. MMSI: 259387000.

Date/timePositionNaut miles runAvg speedWind from/ knotsBaromVisibWave heightAir tempDewpointWater temp
2016-Jun-26 18:10N 66°07' E 012°47'14 5.1
2016-Jun-26 15:24N 66°21' E 012°50'3712.2
2016-Jun-26 12:24N 66°54' E 013°32'1720.6
2016-Jun-26 11:33N 67°08' E 013°58'1313.0
2016-Jun-26 10:33N 67°17' E 014°22'0 0.0
2016-Jun-26 09:34N 67°17' E 014°22'0 0.0
2016-Jun-26 08:34N 67°17' E 014°22'0 0.0
2016-Jun-26 07:34N 67°17' E 014°22'0 0.0
2016-Jun-26 06:34N 67°17' E 014°22'0 0.0
2016-Jun-26 05:33N 67°17' E 014°22'0 0.0
2016-Jun-26 04:33N 67°17' E 014°22'0 0.0
2016-Jun-26 03:34N 67°17' E 014°22'0 0.0
2016-Jun-26 02:33N 67°17' E 014°22'0 0.0
2016-Jun-26 01:34N 67°17' E 014°22'0 0.0
2016-Jun-26 00:33N 67°17' E 014°22'0 0.0
2016-Jun-25 23:34N 67°17' E 014°22'0 0.0
2016-Jun-25 22:34N 67°17' E 014°22'0 0.0
2016-Jun-25 21:33N 67°17' E 014°22'0 0.0
2016-Jun-25 20:34N 67°17' E 014°22'0 0.0
2016-Jun-25 19:34N 67°17' E 014°22'0 0.0
2016-Jun-25 18:34N 67°17' E 014°22'0 0.0
2016-Jun-25 17:34N 67°17' E 014°22'0 0.0
2016-Jun-25 16:34N 67°17' E 014°22'0 0.0
2016-Jun-25 15:33N 67°17' E 014°22'0 0.0
2016-Jun-25 14:34N 67°17' E 014°22'0 0.0
2016-Jun-25 13:34N 67°17' E 014°22'0 0.0
2016-Jun-25 12:34N 67°17' E 014°22'0 0.0
2016-Jun-25 11:33N 67°17' E 014°22'0 0.0
2016-Jun-25 10:33N 67°17' E 014°22'0 0.0
2016-Jun-25 09:33N 67°17' E 014°22'1 0.7
2016-Jun-25 08:34N 67°17' E 014°24'1312.8
2016-Jun-25 07:33N 67°29' E 014°37'1 0.1
2016-Jun-24 16:33N 67°30' E 014°39'1514.8
2016-Jun-24 15:34N 67°17' E 014°22'8 3.8
2016-Jun-24 13:34N 67°24' E 014°31'7 7.2
2016-Jun-24 12:34N 67°17' E 014°23'0 0.4
2016-Jun-24 11:33N 67°17' E 014°22'0 0.0
2016-Jun-24 10:33N 67°17' E 014°22'0 0.0
2016-Jun-24 09:33N 67°17' E 014°22'0 0.0
2016-Jun-24 08:33N 67°17' E 014°22'20 1.2
2016-Jun-23 16:06N 67°36' E 014°42'1323.6
2016-Jun-23 15:33N 67°24' E 014°30'7 7.5
2016-Jun-23 14:33N 67°17' E 014°22'0 0.0
2016-Jun-23 13:33N 67°17' E 014°22'0 0.0
2016-Jun-23 12:33N 67°17' E 014°22'0 0.0
2016-Jun-23 11:34N 67°17' E 014°22'0 0.0
2016-Jun-23 10:34N 67°17' E 014°22'9 8.8
2016-Jun-23 09:33N 67°11' E 014°06'57 3.8
2016-Jun-22 18:32N 66°21' E 012°59'3611.5
2016-Jun-22 15:21N 66°55' E 013°30'1519.1
2016-Jun-22 14:34N 67°06' E 013°57'1515.0
2016-Jun-22 13:34N 67°17' E 014°22'0 0.0
2016-Jun-22 12:33N 67°17' E 014°22'0 0.0
2016-Jun-22 11:33N 67°17' E 014°22'0 0.0
2016-Jun-22 10:33N 67°17' E 014°22'0 0.0
2016-Jun-22 09:34N 67°17' E 014°22'0 0.0
2016-Jun-22 08:33N 67°17' E 014°22'1312.5
2016-Jun-22 07:33N 67°29' E 014°33'6 0.4
2016-Jun-21 15:34N 67°23' E 014°29'7 6.8
2016-Jun-21 14:34N 67°17' E 014°22'0 0.0
2016-Jun-21 13:33N 67°17' E 014°22'0 0.0
2016-Jun-21 12:34N 67°17' E 014°22'0 0.0
2016-Jun-21 11:33N 67°17' E 014°22'0 0.2
2016-Jun-21 10:33N 67°17' E 014°23'1211.8
2016-Jun-21 09:33N 67°09' E 014°01'4714.6
2016-Jun-21 06:19N 66°29' E 012°58'8 0.7
2016-Jun-20 18:28N 66°21' E 012°58'3611.5
2016-Jun-20 15:20N 66°54' E 013°31'1518.9
2016-Jun-20 14:34N 67°05' E 013°56'1615.5
2016-Jun-20 13:34N 67°17' E 014°22'0 0.0
2016-Jun-20 12:33N 67°17' E 014°22'0 0.0
2016-Jun-20 11:34N 67°17' E 014°22'0 0.0
2016-Jun-20 10:33N 67°17' E 014°22'10 9.5
2016-Jun-20 09:33N 67°10' E 014°05'4715.5
2016-Jun-20 06:29N 66°30' E 012°60'10 0.7
2016-Jun-19 15:13N 66°21' E 012°52'1112.0
2016-Jun-19 14:20N 66°31' E 012°60'2713.7
2016-Jun-19 12:25N 66°54' E 013°32'1720.5
2016-Jun-19 11:34N 67°08' E 013°58'1312.9
2016-Jun-19 10:33N 67°17' E 014°22'0 0.0
2016-Jun-19 09:33N 67°17' E 014°22'0 0.0
2016-Jun-19 08:34N 67°17' E 014°22'0 0.0
2016-Jun-19 07:34N 67°17' E 014°22'0 0.0
2016-Jun-19 06:33N 67°17' E 014°22'0 0.0
2016-Jun-19 05:34N 67°17' E 014°22'0 0.0
2016-Jun-19 04:33N 67°17' E 014°22'0 0.0
2016-Jun-19 03:34N 67°17' E 014°22'0 0.0
2016-Jun-19 02:34N 67°17' E 014°22'0 0.0
2016-Jun-19 01:34N 67°17' E 014°22'0 0.0
2016-Jun-19 00:34N 67°17' E 014°22'0 0.0
2016-Jun-18 23:34N 67°17' E 014°22'0 0.0
2016-Jun-18 22:33N 67°17' E 014°22'0 0.0
2016-Jun-18 21:33N 67°17' E 014°22'0 0.0
2016-Jun-18 20:33N 67°17' E 014°22'0 0.0
2016-Jun-18 19:33N 67°17' E 014°22'0 0.0
2016-Jun-18 18:34N 67°17' E 014°22'0 0.0
2016-Jun-18 17:33N 67°17' E 014°22'0 0.0
2016-Jun-18 16:33N 67°17' E 014°22'0 0.0
2016-Jun-18 15:33N 67°17' E 014°22'0 0.0
2016-Jun-18 14:33N 67°17' E 014°22'0 0.0
2016-Jun-18 13:34N 67°17' E 014°22'0 0.0
2016-Jun-18 12:33N 67°17' E 014°22'0 0.0
2016-Jun-18 11:33N 67°17' E 014°22'0 0.0
2016-Jun-18 10:33N 67°17' E 014°22'0 0.0
2016-Jun-18 09:34N 67°17' E 014°22'0 0.0
2016-Jun-18 08:34N 67°17' E 014°22'1010.4
2016-Jun-18 07:33N 67°26' E 014°34'4 0.2
2016-Jun-17 16:34N 67°30' E 014°37'1414.1
2016-Jun-17 15:33N 67°17' E 014°22'2214.6
2016-Jun-17 14:04N 67°37' E 014°42'1428.4
2016-Jun-17 13:34N 67°24' E 014°30'7 7.0
2016-Jun-17 12:33N 67°17' E 014°23'0 0.4
2016-Jun-17 11:33N 67°17' E 014°22'0 0.0
2016-Jun-17 10:33N 67°17' E 014°22'0 0.0
2016-Jun-17 09:33N 67°17' E 014°22'0 0.0
2016-Jun-17 08:33N 67°17' E 014°22'7 7.3
2016-Jun-17 07:33N 67°24' E 014°31'  

Dump ship's entire track history